Amunt
Inicio > meteoXarxa
Fes-te'n soci

METEOXARXA

Xert
Ubicació Pla de la Font
Comarca el Baix Maestrat
Altitud (msnm) 450
Posició geogràfica 40° 31' 16.32" N, 00° 9' 32.40" E
Model Davis Vantage Vue
Presa de dades
Font de les dades Hilario Domenech
Estadístiques. Resum
Data Temperatura (ºC) Humitat (%) Pressió (hPa) Vent (km/h) Precipit. (mm)
Mínima Mitjana Màxima Mínima Mitjana Màxima Mínima Mitjana Màxima Predom. Mitjana Ràfega màxima Total Dies de pluja
Mínima Mitjana Màxima Mínima Mitjana Màxima
Últimes dades diàries
21-01-2017 4,5     7,1     8,6 63,0 76,7 97,0 1.016,4 1.018,2 1.020,8 ESE 15,5 45,0 7,4  
20-01-2017 3,8     4,9     5,9 96,0 97,7 98,0 1.019,3 1.020,4 1.021,6 ESE 14,2 58,0 85,4  
19-01-2017 1,3     3,9     6,0 41,0 66,5 96,0 1.020,6 1.021,9 1.023,6 SE 15,2 51,0 18,4  
18-01-2017 -1,5     1,2     5,6 26,0 40,2 56,0 1.019,6 1.022,0 1.023,7 ESE 14,5 47,0 0,0  
17-01-2017 -0,1     5,5     9,5 23,0 46,0 63,0 1.012,9 1.016,2 1.019,7 SE 18,1 66,0 0,0  
16-01-2017 7,4     9,6     13,0 52,0 64,5 82,0 1.013,6 1.017,4 1.022,1 OSO 24,0 92,0 0,2  
15-01-2017 4,9     7,2     10,2 48,0 59,2 66,0 1.021,6 1.023,0 1.025,2 SSO 17,3 74,0 0,0  
14-01-2017 4,5     5,8     8,8 37,0 54,6 64,0 1.019,7 1.023,2 1.025,8 SSE 16,7 79,0 0,0  
13-01-2017 4,9     9,0     14,8 43,0 56,1 70,0 1.015,0 1.018,2 1.023,0 SSE 13,3 72,0 0,0  
12-01-2017 6,8     13,2     19,4 44,0 68,2 88,0 1.016,3 1.021,1 1.024,6 S 4,9 42,0 0,0  
11-01-2017 8,1     9,9     13,4 60,0 67,8 81,0 1.012,9 1.020,9 1.024,7 SSE 9,2 61,0 0,0  
10-01-2017 8,3     10,1     11,9 53,0 59,9 68,0 1.008,9 1.014,2 1.020,9 OSO 22,3 109,0 0,0  
09-01-2017 3,5     8,7     13,8 45,0 63,5 90,0 1.020,8 1.024,8 1.027,5 SO 8,4 42,0 0,0  
08-01-2017 0,7     9,2     15,6 18,0 39,4 65,0 1.025,1 1.027,5 1.031,1 SO 7,5 45,0 0,0  
07-01-2017 -0,3     4,6     12,2 42,0 69,0 93,0 1.029,7 1.030,6 1.032,0 SO 3,5 23,0 0,0  
06-01-2017 0,1     4,8     12,0 27,0 61,8 91,0 1.026,4 1.029,2 1.031,0 OSO 2,9 19,0 0,0  
05-01-2017 2,9     9,9     16,0 22,0 43,3 76,0 1.019,9 1.022,4 1.026,2 SO 11,0 60,0 0,0  
04-01-2017 6,5     11,4     15,9 28,0 54,3 80,0 1.020,0 1.023,0 1.024,9 SO 7,7 72,0 0,0  
03-01-2017 3,4     7,7     12,9 44,0 74,3 95,0 1.022,1 1.023,6 1.025,0 SO 2,6 27,0 0,0  
02-01-2017 -0,1     5,1     10,6 69,0 85,9 97,0 1.022,0 1.023,1 1.024,5 SO 1,7 21,0 0,2  
01-01-2017 1,1     5,6     11,8 65,0 85,8 95,0 1.023,4 1.026,1 1.030,8 SSO 2,5 23,0 0,0  
31-12-2016 2,4     7,1     12,8 57,0 81,7 95,0 1.031,1 1.033,2 1.035,4 SO 2,7 27,0 0,0  
30-12-2016 0,1     5,1     11,2 66,0 83,7 96,0 1.035,1 1.036,3 1.037,7 SSO 2,4 19,0 0,0  
29-12-2016 1,3     6,2     16,4 21,0 55,6 79,0 1.033,1 1.034,7 1.036,8 OSO 3,7 16,0 0,0  
28-12-2016 2,2     7,0     15,8 34,0 70,0 89,0 1.035,9 1.037,0 1.039,2 OSO 2,2 16,0 0,0  
27-12-2016 3,9     8,2     14,7 52,0 71,9 85,0 1.032,5 1.033,8 1.036,3 OSO 2,4 14,0 0,0  
26-12-2016 5,1     9,3     17,3 39,0 64,1 82,0 1.030,4 1.031,7 1.033,0 O 3,7 14,0 0,0  
25-12-2016 5,4     10,8     17,8 50,0 70,6 84,0 1.030,9 1.033,1 1.036,3 O 3,7 31,0 0,0  
24-12-2016 10,3     12,3     14,8 57,0 65,6 75,0 1.035,4 1.036,3 1.037,5 OSO 8,3 37,0 0,0  
23-12-2016 7,3     11,1     15,5 60,0 75,3 89,0 1.034,8 1.035,6 1.036,7 SO 3,4 24,0 0,0  
22-12-2016 8,7     11,3     16,1 50,0 66,3 81,0 1.030,0 1.033,1 1.035,3 OSO 7,8 43,0 0,0  
21-12-2016 6,6     9,4     13,5 54,0 65,6 73,0 1.021,7 1.026,3 1.030,4 OSO 15,4 58,0 0,0  
Dades del mes en curs (actualitzades fins l'últim dia disponible)
01/2017 -1,5 3,4 8,3 7,4 5,6 11,8 19,4 18,0 63,6 98,0 1.008,9 1.022,2 1.032,0   11,1 109,0 111,6  
Últimes dades mensuals
12/2016 0,1 5,5 10,9 9,0 8,4 14,0 17,8 55,6 80,3 96,3 1.016,5 1.027,9 1.037,0 5,4 69,0 105,6 12
11/2016 3,0 7,8 11,8 11,6 10,3 16,0 23,3 6,1 91,7 81,0 10
10/2016 7,9 11,9 15,7 16,3 14,3 21,3 26,2 3,2 41,8 19,0 7
09/2016 10,3 15,4 24,2 20,7 19,3 26,5 37,9 5,6 69,2 38,6 7
08/2016 13,3 16,8 19,7 22,8 23,7 28,8 32,3 5,4 64,4 15,4 4
07/2016 13,3 17,1 19,7 23,5 25,7 29,5 33,8 5,9 57,9 3,8 2
06/2016 11,2 14,7 18,7 20,6 22,0 26,5 32,6 6,2 70,8 21,6 7
05/2016 6,7 11,1 16,3 15,8 12,9 21,0 26,1 7,5 95,0 62,2 8
04/2016 3,5 8,1 11,6 13,0 11,6 17,8 22,9 7,7 104,6 57,0 10
03/2016 2,5 6,4 10,7 10,3 7,9 15,0 22,9 10,7 125,5 57,2 8
02/2016 -0,7 5,8 13,0 10,3 8,9 15,7 21,9 11,1 112,7 36,0 7
01/2016 1,8 5,8 8,7 10,2 8,6 15,1 21,8 6,6 103,0 7,4 3
12/2015 3,2 6,3 10,7 10,5 13,3 16,6 20,4 2,5 33,8 1,6 7
Dades de l'any en curs (actualitzades fins l'últim dia disponible)
2017 -1,5 3,4 8,3 7,4 5,6 11,8 19,4 18,0 63,6 98,0 1.008,9 1.022,2 1.032,0   11,1 109,0 111,6  
Últimes dades anuals
2012 108,0 441,0
2013 -1,6 12,4 13,9 17,4 18,8 23,0 32,3 70,9 70,9 70,9 1.022,9 1.022,9 1.022,9 6,6 137,0 677,2 45
2014 -0,5 11,0 14,6 15,8 20,0 21,0 33,6 6,9 144,8 726,6 99
2015 -1,6 10,9 17,4 15,8 18,9 21,3 35,8 6,8 151,3 761,6 84
2016 -0,7 11,3 24,2 16,3 7,9 21,7 37,9 6,9 125,5 318,2 63